Time;durP1;ratioP1;P1;durP2;ratioP2;P2;SDS_P1;SDS_P2;PMS_P1;PMS_P2;Temp;Humidity;BMP_temperature;BMP_pressure;BME280_temperature;BME280_humidity;BME280_pressure;Samples;Min_cycle;Max_cycle;Signal;HPM_P1;HPM_P2
2021/10/31 00:02:14;;;;;;;1.08;0.50;;;17.50;74.00;;;;;;2323808;54;20998;-74
2021/10/31 00:04:42;;;;;;;1.40;0.60;;;17.50;74.00;;;;;;2307230;54;21427;-71
2021/10/31 00:07:08;;;;;;;1.17;0.50;;;17.50;73.90;;;;;;2305271;55;21042;-70
2021/10/31 00:09:35;;;;;;;1.30;0.52;;;17.50;73.90;;;;;;2314734;54;20949;-73
2021/10/31 00:12:02;;;;;;;1.37;0.50;;;17.50;73.90;;;;;;2316825;55;21788;-71
2021/10/31 00:14:29;;;;;;;2.00;0.70;;;17.50;74.50;;;;;;2301772;54;20959;-70
2021/10/31 00:16:58;;;;;;;1.00;0.50;;;17.50;73.70;;;;;;2498843;54;20956;-71
2021/10/31 00:19:27;;;;;;;1.27;0.40;;;17.50;73.70;;;;;;2556497;53;21023;-71
2021/10/31 00:21:53;;;;;;;2.12;0.60;;;17.50;73.60;;;;;;2365031;54;21790;-72
2021/10/31 00:24:22;;;;;;;2.47;1.10;;;17.40;73.50;;;;;;2296942;54;21381;-73
2021/10/31 00:26:50;;;;;;;3.12;1.65;;;17.40;73.10;;;;;;2282296;55;20971;-70
2021/10/31 00:29:16;;;;;;;3.87;2.10;;;17.40;72.80;;;;;;2319666;54;20995;-71
2021/10/31 00:31:43;;;;;;;3.25;1.83;;;17.40;72.80;;;;;;2475225;53;21030;-73
2021/10/31 00:34:10;;;;;;;3.45;1.80;;;17.30;72.60;;;;;;2315137;54;21017;-71
2021/10/31 00:36:37;;;;;;;4.53;2.55;;;17.20;72.50;;;;;;2327695;54;20925;-70
2021/10/31 00:39:04;;;;;;;4.12;2.35;;;17.20;72.40;;;;;;2314205;54;20923;-73
2021/10/31 00:41:31;;;;;;;4.55;2.60;;;17.10;72.10;;;;;;2403032;54;20960;-71
2021/10/31 00:43:57;;;;;;;4.10;2.45;;;17.00;71.90;;;;;;2315088;54;20929;-71
2021/10/31 00:46:23;;;;;;;5.78;3.35;;;17.00;71.90;;;;;;2498514;54;21507;-70
2021/10/31 00:48:50;;;;;;;4.80;2.60;;;16.90;71.70;;;;;;2312811;54;21476;-72
2021/10/31 00:51:16;;;;;;;5.40;3.28;;;16.80;71.60;;;;;;2311418;54;21476;-69
2021/10/31 00:53:43;;;;;;;5.57;3.70;;;16.70;71.50;;;;;;2321138;54;21842;-71
2021/10/31 00:56:10;;;;;;;5.45;3.37;;;16.70;71.60;;;;;;2315938;54;21048;-71
2021/10/31 00:58:37;;;;;;;4.93;3.50;;;16.60;71.70;;;;;;2541952;54;20963;-68
2021/10/31 01:01:04;;;;;;;7.60;3.95;;;16.50;71.70;;;;;;2287991;54;22188;-70
2021/10/31 01:03:30;;;;;;;6.72;3.62;;;16.50;71.70;;;;;;2318484;54;20943;-71
2021/10/31 01:06:46;;;;;;;6.12;3.95;;;16.40;71.70;;;;;;2293457;54;21609;-71
2021/10/31 01:09:33;;;;;;;5.55;3.53;;;16.30;71.00;;;;;;2333520;54;20923;-72
2021/10/31 01:15:55;;;;;;;6.60;3.80;;;16.30;71.40;;;;;;2556859;54;21139;-71
2021/10/31 01:18:53;;;;;;;5.95;3.75;;;16.20;71.20;;;;;;2389435;54;21037;-74
2021/10/31 01:22:15;;;;;;;5.57;3.92;;;16.10;71.10;;;;;;2375271;53;21011;-70
2021/10/31 01:30:59;;;;;;;6.80;4.07;;;16.10;71.50;;;;;;2541542;54;21715;-71
2021/10/31 01:34:11;;;;;;;4.30;2.37;;;15.90;71.10;;;;;;2326484;54;20995;-71
2021/10/31 01:37:18;;;;;;;4.50;2.80;;;15.80;71.80;;;;;;2467933;54;21555;-72
2021/10/31 01:39:48;;;;;;;5.07;3.50;;;15.80;71.60;;;;;;2304001;55;20994;-69
2021/10/31 01:45:56;;;;;;;6.12;4.22;;;15.70;72.30;;;;;;2308590;54;21016;-73
2021/10/31 01:48:46;;;;;;;7.75;3.87;;;15.70;71.70;;;;;;2337892;54;21395;-69
2021/10/31 01:51:19;;;;;;;6.28;3.42;;;15.70;72.20;;;;;;2321106;54;21040;-72
2021/10/31 01:53:57;;;;;;;5.25;3.28;;;15.70;72.40;;;;;;2537111;54;20957;-70
2021/10/31 01:56:24;;;;;;;6.45;3.53;;;15.60;72.40;;;;;;2309177;54;21023;-68
2021/10/31 01:58:57;;;;;;;7.05;3.80;;;15.60;72.60;;;;;;2299166;54;21049;-71
2021/10/31 02:01:24;;;;;;;5.18;3.22;;;15.60;72.60;;;;;;2313301;54;20954;-74
2021/10/31 02:03:51;;;;;;;5.32;3.75;;;15.50;72.60;;;;;;2315738;54;20935;-73
2021/10/31 02:06:17;;;;;;;8.77;4.20;;;15.50;72.70;;;;;;2298821;54;20968;-73
2021/10/31 02:08:45;;;;;;;5.57;3.70;;;15.50;72.90;;;;;;2312941;54;21098;-73
2021/10/31 02:11:16;;;;;;;5.60;3.25;;;15.50;72.90;;;;;;2366700;54;20950;-70
2021/10/31 02:14:17;;;;;;;5.40;3.67;;;15.50;73.10;;;;;;2307972;54;20971;-70
2021/10/31 02:16:43;;;;;;;5.53;3.53;;;15.50;72.80;;;;;;2313010;54;21412;-69
2021/10/31 02:19:20;;;;;;;6.62;3.83;;;15.40;73.10;;;;;;2314482;54;21006;-69
2021/10/31 02:21:47;;;;;;;6.12;4.07;;;15.50;73.10;;;;;;2314069;54;21480;-69
2021/10/31 02:24:15;;;;;;;6.95;4.93;;;15.50;73.30;;;;;;2311263;55;21097;-71
2021/10/31 02:26:41;;;;;;;10.07;4.45;;;15.50;73.40;;;;;;2301415;54;21402;-69
2021/10/31 02:29:22;;;;;;;5.45;4.00;;;15.50;73.40;;;;;;2312017;55;20935;-71
2021/10/31 02:31:48;;;;;;;6.32;3.85;;;15.50;73.10;;;;;;2312995;54;21066;-69
2021/10/31 02:34:15;;;;;;;5.78;3.62;;;15.40;73.30;;;;;;2314665;54;21014;-71
2021/10/31 02:36:41;;;;;;;6.75;3.75;;;15.50;73.50;;;;;;2320314;54;21043;-70
2021/10/31 02:39:22;;;;;;;5.47;3.53;;;15.50;73.50;;;;;;2441209;54;20959;-74
2021/10/31 02:41:51;;;;;;;5.32;3.40;;;15.50;73.20;;;;;;2312559;54;20937;-71
2021/10/31 02:44:18;;;;;;;6.65;3.75;;;15.50;73.50;;;;;;2300704;54;21468;-71
2021/10/31 02:46:44;;;;;;;5.40;3.72;;;15.50;73.60;;;;;;2469213;54;21002;-71
2021/10/31 02:49:11;;;;;;;5.05;3.42;;;15.50;73.60;;;;;;2302813;55;21546;-72
2021/10/31 02:51:58;;;;;;;5.85;4.20;;;15.50;73.60;;;;;;2315933;54;20953;-71
2021/10/31 02:55:01;;;;;;;6.03;3.65;;;15.50;73.30;;;;;;2293170;55;21011;-72
2021/10/31 02:57:40;;;;;;;;;;;15.50;73.10;;;;;;2311750;55;21337;-71
2021/10/31 03:00:07;;;;;;;4.55;2.72;;;15.50;72.80;;;;;;2296678;55;20403;-74
2021/10/31 03:02:33;;;;;;;6.57;3.45;;;15.50;73.30;;;;;;2303387;55;21762;-72
2021/10/31 03:05:00;;;;;;;5.68;3.87;;;15.50;73.40;;;;;;2308154;55;21825;-74
2021/10/31 03:07:26;;;;;;;4.57;3.05;;;15.50;73.50;;;;;;2309717;54;21524;-71
2021/10/31 03:09:53;;;;;;;5.93;3.78;;;15.40;73.50;;;;;;2314789;54;22423;-71
2021/10/31 03:12:19;;;;;;;7.40;3.50;;;15.50;73.60;;;;;;2312700;54;21606;-70
2021/10/31 03:14:46;;;;;;;6.62;3.70;;;15.40;73.60;;;;;;2316420;54;20944;-71
2021/10/31 03:17:12;;;;;;;5.85;3.28;;;15.40;73.60;;;;;;2331266;55;20989;-74
2021/10/31 03:19:51;;;;;;;8.02;4.05;;;15.40;73.60;;;;;;2381888;53;20949;-69
2021/10/31 03:22:25;;;;;;;5.72;3.50;;;15.50;73.50;;;;;;2327405;55;21985;-71
2021/10/31 03:25:10;;;;;;;6.93;3.97;;;15.50;73.60;;;;;;2426317;53;20934;-70
2021/10/31 03:27:37;;;;;;;6.32;4.15;;;15.50;73.40;;;;;;2324291;54;20909;-70
2021/10/31 03:30:04;;;;;;;5.35;3.05;;;15.40;73.70;;;;;;2334974;54;20941;-71
2021/10/31 03:32:31;;;;;;;5.05;3.05;;;15.40;73.70;;;;;;2339579;55;21455;-70
2021/10/31 03:34:57;;;;;;;5.40;3.65;;;15.50;73.70;;;;;;2320144;55;21700;-73
2021/10/31 03:37:23;;;;;;;4.82;3.15;;;15.40;73.50;;;;;;2334520;54;21477;-71
2021/10/31 03:39:52;;;;;;;6.45;3.75;;;15.40;73.50;;;;;;2315576;54;21298;-68
2021/10/31 03:42:24;;;;;;;7.00;3.97;;;15.40;73.50;;;;;;2330654;55;20936;-73
2021/10/31 03:44:50;;;;;;;4.95;3.25;;;15.40;73.50;;;;;;2341938;55;20940;-73
2021/10/31 03:47:17;;;;;;;6.72;4.45;;;15.40;73.70;;;;;;2469165;53;20972;-70
2021/10/31 03:49:45;;;;;;;6.03;3.70;;;15.50;73.90;;;;;;2338320;55;20992;-70
2021/10/31 03:52:12;;;;;;;5.03;3.20;;;15.40;73.80;;;;;;2341154;55;20929;-73
2021/10/31 03:54:39;;;;;;;5.45;3.70;;;15.50;74.00;;;;;;2342342;54;21477;-73
2021/10/31 03:57:06;;;;;;;6.62;3.90;;;15.50;74.00;;;;;;2313131;55;20990;-73
2021/10/31 03:59:32;;;;;;;5.00;3.15;;;15.50;74.00;;;;;;2331892;54;21865;-70
2021/10/31 04:01:59;;;;;;;4.47;3.08;;;15.50;74.10;;;;;;2321625;53;20968;-72
2021/10/31 04:04:26;;;;;;;6.70;3.47;;;15.50;74.10;;;;;;2319348;54;20972;-71
2021/10/31 04:06:52;;;;;;;6.68;3.30;;;15.50;74.10;;;;;;2350619;53;20997;-69
2021/10/31 04:09:18;;;;;;;5.00;3.30;;;15.50;74.00;;;;;;2331319;55;21023;-71
2021/10/31 04:11:45;;;;;;;4.85;3.15;;;15.50;74.00;;;;;;2398149;54;21450;-72
2021/10/31 04:14:11;;;;;;;6.03;3.37;;;15.50;74.00;;;;;;2332456;55;21500;-71
2021/10/31 04:17:14;;;;;;;5.65;3.50;;;15.50;74.00;;;;;;2326462;54;20913;-69
2021/10/31 04:19:40;;;;;;;6.97;3.65;;;15.50;73.70;;;;;;2313615;55;20960;-71
2021/10/31 04:22:34;;;;;;;8.63;4.47;;;15.50;74.00;;;;;;2341784;55;20994;-70
2021/10/31 04:25:00;;;;;;;6.10;3.58;;;15.50;73.70;;;;;;2317746;54;20937;-70
2021/10/31 04:27:26;;;;;;;8.60;4.18;;;15.60;74.20;;;;;;2341537;55;20936;-70
2021/10/31 04:30:20;;;;;;;8.32;4.15;;;15.60;74.20;;;;;;2322590;55;21480;-70
2021/10/31 04:32:47;;;;;;;6.12;3.28;;;15.60;74.00;;;;;;2316461;54;21473;-68
2021/10/31 04:35:13;;;;;;;10.50;4.15;;;15.60;74.30;;;;;;2338156;55;21340;-73
2021/10/31 04:37:49;;;;;;;6.05;3.80;;;15.60;74.30;;;;;;2316491;55;21021;-71
2021/10/31 04:40:18;;;;;;;6.75;4.15;;;15.60;74.00;;;;;;2341838;54;21382;-71
2021/10/31 04:42:44;;;;;;;5.72;3.50;;;15.60;74.20;;;;;;2341536;55;20937;-72
2021/10/31 04:45:10;;;;;;;6.25;3.62;;;15.60;74.20;;;;;;2312514;55;21016;-71
2021/10/31 04:47:37;;;;;;;9.65;5.50;;;15.60;74.20;;;;;;2501424;53;20940;-68
2021/10/31 04:50:05;;;;;;;13.88;8.93;;;15.60;74.20;;;;;;2317743;55;20953;-68
2021/10/31 04:52:33;;;;;;;15.27;9.60;;;15.60;74.90;;;;;;2326578;54;21029;-72
2021/10/31 04:55:00;;;;;;;14.38;7.90;;;15.70;75.00;;;;;;2334938;54;20996;-72
2021/10/31 04:57:28;;;;;;;8.95;5.35;;;15.60;74.20;;;;;;2337119;54;20982;-70
2021/10/31 04:59:54;;;;;;;7.97;4.82;;;15.60;74.10;;;;;;2325866;54;20996;-71
2021/10/31 05:02:20;;;;;;;8.63;5.62;;;15.60;74.10;;;;;;2313044;54;20921;-68
2021/10/31 05:04:47;;;;;;;6.70;4.00;;;15.60;74.10;;;;;;2328357;54;21379;-75
2021/10/31 05:07:15;;;;;;;6.00;3.72;;;15.60;74.10;;;;;;2341156;54;20928;-69
2021/10/31 05:09:45;;;;;;;8.15;3.70;;;15.60;74.20;;;;;;2317810;54;20936;-69
2021/10/31 05:12:12;;;;;;;6.72;3.50;;;15.60;74.10;;;;;;2341419;54;21024;-72
2021/10/31 05:14:39;;;;;;;5.85;3.60;;;15.70;74.30;;;;;;2334499;54;21037;-71
2021/10/31 05:17:06;;;;;;;7.40;3.65;;;15.70;74.20;;;;;;2323539;55;20972;-71
2021/10/31 05:19:33;;;;;;;5.47;3.37;;;15.70;74.20;;;;;;2464018;53;20976;-72
2021/10/31 05:21:59;;;;;;;5.40;3.17;;;15.70;74.10;;;;;;2578639;53;21033;-72
2021/10/31 05:24:25;;;;;;;7.22;3.65;;;15.60;74.00;;;;;;2322558;55;20956;-71
2021/10/31 05:26:52;;;;;;;7.00;3.53;;;15.70;74.10;;;;;;2418158;53;21040;-74
2021/10/31 05:29:18;;;;;;;5.05;3.22;;;15.70;74.00;;;;;;2338935;54;20972;-71
2021/10/31 05:31:44;;;;;;;5.78;3.65;;;15.70;74.10;;;;;;2580834;53;20953;-68
2021/10/31 05:34:11;;;;;;;6.10;3.80;;;15.70;74.10;;;;;;2315767;55;20954;-70
2021/10/31 05:36:37;;;;;;;5.87;3.25;;;15.70;74.10;;;;;;2317905;55;20973;-70
2021/10/31 05:39:04;;;;;;;5.45;3.17;;;15.70;74.10;;;;;;2323216;54;20948;-70
2021/10/31 05:41:30;;;;;;;5.70;3.50;;;15.70;74.00;;;;;;2514098;53;21983;-70
2021/10/31 05:43:57;;;;;;;4.68;3.12;;;15.70;73.80;;;;;;2332194;55;21029;-70
2021/10/31 05:46:23;;;;;;;4.90;2.75;;;15.60;73.70;;;;;;2571931;53;20989;-70
2021/10/31 05:48:50;;;;;;;5.85;3.53;;;15.60;73.60;;;;;;2417377;53;20909;-70
2021/10/31 05:51:16;;;;;;;4.32;2.75;;;15.60;73.40;;;;;;2585574;53;20980;-70
2021/10/31 05:53:42;;;;;;;5.47;3.12;;;15.60;73.30;;;;;;2341002;54;21401;-70
2021/10/31 05:56:10;;;;;;;6.25;3.08;;;15.60;73.20;;;;;;2342023;55;20988;-70
2021/10/31 05:58:36;;;;;;;4.50;2.92;;;15.50;73.10;;;;;;2336003;54;21073;-70
2021/10/31 06:01:02;;;;;;;5.37;2.95;;;15.50;73.00;;;;;;2323029;54;20948;-70
2021/10/31 06:03:47;;;;;;;4.18;2.53;;;15.50;73.00;;;;;;2341362;54;20976;-70
2021/10/31 06:06:14;;;;;;;5.70;3.17;;;15.50;72.70;;;;;;2584774;53;21031;-71
2021/10/31 06:08:40;;;;;;;4.20;2.28;;;15.40;73.00;;;;;;2343183;54;20960;-70
2021/10/31 06:11:08;;;;;;;5.18;2.53;;;15.40;73.10;;;;;;2313484;54;21628;-71
2021/10/31 06:13:35;;;;;;;3.92;2.08;;;15.40;73.30;;;;;;2341498;55;21418;-70
2021/10/31 06:16:02;;;;;;;4.85;2.05;;;15.30;73.40;;;;;;2328985;53;21037;-71
2021/10/31 06:18:30;;;;;;;2.80;1.48;;;15.30;73.90;;;;;;2471628;54;21045;-70
2021/10/31 06:20:57;;;;;;;2.20;1.00;;;15.30;74.60;;;;;;2327332;54;21476;-71
2021/10/31 06:23:24;;;;;;;3.72;0.90;;;15.40;75.20;;;;;;2323737;55;21012;-70
2021/10/31 06:25:53;;;;;;;1.58;0.73;;;15.40;75.60;;;;;;2384702;54;20931;-70
2021/10/31 06:28:23;;;;;;;2.35;0.70;;;15.50;76.10;;;;;;2321106;54;21025;-70
2021/10/31 06:30:50;;;;;;;1.77;0.70;;;15.50;76.30;;;;;;2343450;53;21395;-71
2021/10/31 06:33:17;;;;;;;1.25;0.57;;;15.60;76.40;;;;;;2328463;54;20956;-71
2021/10/31 06:35:45;;;;;;;0.68;0.30;;;15.70;76.60;;;;;;2338235;55;20940;-70
2021/10/31 06:38:12;;;;;;;2.35;1.05;;;15.70;76.60;;;;;;2327815;54;20937;-71
2021/10/31 06:40:38;;;;;;;0.93;0.40;;;15.80;76.90;;;;;;2350962;54;21501;-70
2021/10/31 06:43:04;;;;;;;0.90;0.40;;;15.90;77.10;;;;;;2470057;53;20921;-71
2021/10/31 06:45:31;;;;;;;0.75;0.30;;;16.00;77.30;;;;;;2305170;55;20924;-71
2021/10/31 06:47:57;;;;;;;0.68;0.30;;;16.00;77.10;;;;;;2316874;54;21050;-71
2021/10/31 06:50:23;;;;;;;0.85;0.40;;;16.10;77.10;;;;;;2379812;53;20941;-70
2021/10/31 06:52:50;;;;;;;1.12;0.40;;;16.10;76.80;;;;;;2340631;55;22046;-70
2021/10/31 06:55:17;;;;;;;0.22;0.20;;;16.30;76.90;;;;;;2404495;53;21398;-71
2021/10/31 06:57:43;;;;;;;1.17;0.52;;;16.30;76.60;;;;;;2480858;53;21539;-72
2021/10/31 07:00:10;;;;;;;1.25;0.55;;;16.30;76.40;;;;;;2321490;54;20989;-71
2021/10/31 07:02:37;;;;;;;2.90;0.70;;;16.40;76.40;;;;;;2317661;54;20966;-73
2021/10/31 07:05:03;;;;;;;1.77;0.68;;;16.40;76.20;;;;;;2317905;55;21454;-71
2021/10/31 07:07:29;;;;;;;1.50;0.55;;;16.40;76.10;;;;;;2316638;54;20966;-71
2021/10/31 07:09:56;;;;;;;1.50;0.70;;;16.50;76.20;;;;;;2310949;55;20925;-70
2021/10/31 07:12:22;;;;;;;2.20;0.90;;;16.50;76.10;;;;;;2313666;54;20938;-71
2021/10/31 07:14:49;;;;;;;2.17;0.85;;;16.50;76.00;;;;;;2544172;53;21554;-71
2021/10/31 07:17:16;;;;;;;1.60;0.68;;;16.60;76.10;;;;;;2311059;54;21013;-69
2021/10/31 07:19:42;;;;;;;2.28;1.00;;;16.60;76.10;;;;;;2319235;54;20997;-74
2021/10/31 07:22:08;;;;;;;2.40;1.10;;;16.60;76.10;;;;;;2306491;54;20957;-71
2021/10/31 07:24:35;;;;;;;2.40;1.05;;;16.60;76.10;;;;;;2559710;53;21500;-71
2021/10/31 07:27:02;;;;;;;2.00;0.90;;;16.70;76.10;;;;;;2308784;55;20923;-71
2021/10/31 07:29:31;;;;;;;2.17;0.85;;;16.70;76.00;;;;;;2543980;53;20942;-71
2021/10/31 07:31:59;;;;;;;2.33;0.90;;;16.70;76.10;;;;;;2313182;54;20983;-71
2021/10/31 07:34:26;;;;;;;1.95;0.82;;;16.80;76.20;;;;;;2558308;53;20964;-70
2021/10/31 07:36:53;;;;;;;2.08;0.90;;;16.80;76.30;;;;;;2312876;54;21358;-72
2021/10/31 07:39:19;;;;;;;2.10;0.90;;;16.80;76.20;;;;;;2307648;54;21625;-70
2021/10/31 07:41:46;;;;;;;2.70;1.00;;;16.90;76.20;;;;;;2329043;54;20955;-69
2021/10/31 07:44:12;;;;;;;2.20;0.95;;;16.90;76.10;;;;;;2336425;55;21021;-72
2021/10/31 07:46:39;;;;;;;1.50;0.60;;;16.90;76.30;;;;;;2316438;54;21424;-73
2021/10/31 07:49:07;;;;;;;2.80;0.62;;;17.00;76.60;;;;;;2466261;54;20933;-71
2021/10/31 07:51:33;;;;;;;1.87;0.62;;;17.00;76.80;;;;;;2492166;53;21045;-70
2021/10/31 07:54:00;;;;;;;1.25;0.50;;;17.10;77.00;;;;;;2319858;54;20925;-71
2021/10/31 07:56:31;;;;;;;1.40;0.57;;;17.10;77.20;;;;;;2312143;54;21344;-71
2021/10/31 07:59:09;;;;;;;0.68;0.32;;;17.20;77.40;;;;;;2320901;54;20985;-73
2021/10/31 08:01:36;;;;;;;1.08;0.37;;;17.30;77.10;;;;;;2535427;54;20945;-71
2021/10/31 08:04:02;;;;;;;1.10;0.40;;;17.30;77.30;;;;;;2551507;53;22035;-72
2021/10/31 08:06:29;;;;;;;0.40;0.20;;;17.40;77.20;;;;;;2277122;54;21813;-71
2021/10/31 08:08:56;;;;;;;0.20;0.20;;;17.40;77.10;;;;;;2541672;54;21058;-71
2021/10/31 08:11:22;;;;;;;2.90;0.45;;;17.50;77.10;;;;;;2399380;54;21033;-70
2021/10/31 08:13:49;;;;;;;0.73;0.30;;;17.60;77.20;;;;;;2387156;53;20982;-71
2021/10/31 08:16:16;;;;;;;0.40;0.30;;;17.60;77.10;;;;;;2290595;55;20958;-70
2021/10/31 08:18:42;;;;;;;2.55;0.40;;;17.70;77.00;;;;;;2478139;53;21697;-74
2021/10/31 08:21:09;;;;;;;1.23;0.40;;;17.70;77.00;;;;;;2297493;54;20964;-72
2021/10/31 08:23:36;;;;;;;0.85;0.40;;;17.80;77.10;;;;;;2356329;53;21426;-71
2021/10/31 08:26:03;;;;;;;0.70;0.25;;;17.80;77.10;;;;;;2323955;54;21034;-71
2021/10/31 08:28:36;;;;;;;0.55;0.30;;;17.90;77.20;;;;;;2293266;53;20921;-71
2021/10/31 08:31:03;;;;;;;0.75;0.30;;;17.90;77.10;;;;;;2308356;54;21480;-71
2021/10/31 08:33:33;;;;;;;1.55;0.50;;;18.00;77.10;;;;;;2298069;54;20999;-71
2021/10/31 08:36:06;;;;;;;0.50;0.30;;;18.10;77.00;;;;;;2301839;54;21445;-71
2021/10/31 08:38:32;;;;;;;1.05;0.40;;;18.10;76.90;;;;;;2275168;55;21110;-71
2021/10/31 08:40:59;;;;;;;0.60;0.30;;;18.10;76.90;;;;;;2289870;54;21635;-71
2021/10/31 08:43:25;;;;;;;0.77;0.32;;;18.20;77.00;;;;;;2301599;54;20945;-71
2021/10/31 08:45:52;;;;;;;0.68;0.30;;;18.30;77.10;;;;;;2298614;54;21145;-71
2021/10/31 08:48:19;;;;;;;0.28;0.28;;;18.30;77.10;;;;;;2315882;54;20957;-74
2021/10/31 08:50:46;;;;;;;0.68;0.30;;;18.40;77.20;;;;;;2392006;53;20925;-71
2021/10/31 08:53:12;;;;;;;0.70;0.30;;;18.40;77.10;;;;;;2331835;55;21043;-70
2021/10/31 08:55:39;;;;;;;0.50;0.20;;;18.50;77.20;;;;;;2283607;55;20974;-71
2021/10/31 08:58:09;;;;;;;1.45;0.60;;;18.60;77.20;;;;;;2401241;54;20953;-74
2021/10/31 09:00:37;;;;;;;2.97;0.70;;;18.60;77.20;;;;;;2453890;54;21066;-70
2021/10/31 09:03:05;;;;;;;0.90;0.40;;;18.70;77.50;;;;;;2293670;54;20981;-73
2021/10/31 09:05:33;;;;;;;1.30;0.50;;;18.80;77.70;;;;;;2298395;55;21784;-71
2021/10/31 09:08:00;;;;;;;1.10;0.50;;;18.90;77.90;;;;;;2304105;54;21492;-71
2021/10/31 09:10:27;;;;;;;1.75;0.60;;;19.00;78.00;;;;;;2314732;53;20963;-71
2021/10/31 09:12:53;;;;;;;1.20;0.50;;;19.10;77.90;;;;;;2364994;54;20941;-71
2021/10/31 09:15:20;;;;;;;1.90;0.70;;;19.20;77.90;;;;;;2295561;54;20961;-73
2021/10/31 09:17:47;;;;;;;5.43;0.60;;;19.30;78.00;;;;;;2293421;55;21420;-72
2021/10/31 09:20:13;;;;;;;1.40;0.60;;;19.30;78.00;;;;;;2299646;55;21050;-69
2021/10/31 09:22:40;;;;;;;1.12;0.52;;;19.50;78.20;;;;;;2478562;54;21009;-72
2021/10/31 09:25:08;;;;;;;1.08;0.50;;;19.60;78.30;;;;;;2476892;53;20975;-71
2021/10/31 09:27:36;;;;;;;1.48;0.62;;;19.70;78.20;;;;;;2394788;54;21911;-73
2021/10/31 09:30:05;;;;;;;1.92;0.77;;;19.80;78.30;;;;;;2318182;54;20997;-70
2021/10/31 09:32:40;;;;;;;1.70;0.70;;;19.90;78.00;;;;;;2492812;53;20982;-70
2021/10/31 09:35:08;;;;;;;1.87;0.65;;;20.00;77.80;;;;;;2292735;55;20967;-74
2021/10/31 09:37:35;;;;;;;1.15;0.52;;;20.20;78.20;;;;;;2384236;54;21063;-72
2021/10/31 09:40:04;;;;;;;1.35;0.60;;;20.30;78.10;;;;;;2304624;54;21075;-70
2021/10/31 09:42:33;;;;;;;1.23;0.50;;;20.40;78.00;;;;;;2397188;54;21034;-72
2021/10/31 09:45:01;;;;;;;1.37;0.60;;;20.40;77.50;;;;;;2315850;54;21004;-71
2021/10/31 09:47:30;;;;;;;1.20;0.50;;;20.60;77.40;;;;;;2557955;53;21000;-71
2021/10/31 09:49:58;;;;;;;2.22;0.60;;;20.60;76.90;;;;;;2313983;54;20963;-72
2021/10/31 09:52:25;;;;;;;1.85;0.73;;;20.70;76.90;;;;;;2526375;54;20979;-71
2021/10/31 09:54:52;;;;;;;1.42;0.60;;;20.80;76.90;;;;;;2428794;54;21863;-73
2021/10/31 09:57:19;;;;;;;1.70;0.80;;;20.80;76.60;;;;;;2319826;54;21456;-71
2021/10/31 09:59:54;;;;;;;2.37;1.00;;;20.90;76.20;;;;;;2303041;55;21970;-71
2021/10/31 10:05:32;;;;;;;;;;;20.90;75.40;;;;;;2300310;54;21944;-70
2021/10/31 10:08:18;;;;;;;3.00;1.10;;;21.00;74.40;;;;;;2294715;55;20081;-69
2021/10/31 10:10:47;;;;;;;2.22;0.98;;;21.00;74.20;;;;;;2311746;54;21054;-70
2021/10/31 10:13:25;;;;;;;2.30;1.00;;;21.10;75.20;;;;;;2315775;53;20981;-69
2021/10/31 10:15:53;;;;;;;1.67;0.70;;;21.10;74.60;;;;;;2527985;53;20924;-70
2021/10/31 10:18:30;;;;;;;2.30;0.95;;;21.10;75.30;;;;;;2318796;54;20997;-73
2021/10/31 10:21:31;;;;;;;3.85;0.88;;;21.10;74.50;;;;;;2314273;54;21814;-70
2021/10/31 10:24:11;;;;;;;2.42;0.90;;;21.10;74.20;;;;;;2321492;54;21968;-72
2021/10/31 10:26:46;;;;;;;2.10;0.73;;;21.20;74.20;;;;;;2517807;53;21000;-65
2021/10/31 10:29:16;;;;;;;2.40;1.10;;;21.20;74.40;;;;;;2353610;54;20953;-67
2021/10/31 10:31:47;;;;;;;2.97;1.20;;;21.30;75.00;;;;;;2314487;54;21008;-67
2021/10/31 10:34:13;;;;;;;2.55;1.17;;;21.30;74.60;;;;;;2318830;53;20984;-66
2021/10/31 10:36:40;;;;;;;2.60;1.27;;;21.40;75.20;;;;;;2300033;54;21033;-67
2021/10/31 10:39:15;;;;;;;2.50;1.12;;;21.40;75.30;;;;;;2312806;54;20970;-70
2021/10/31 10:41:50;;;;;;;1.95;0.90;;;21.50;74.90;;;;;;2294459;54;20953;-66
2021/10/31 10:44:36;;;;;;;2.40;1.20;;;21.50;75.10;;;;;;2295678;54;21091;-66
2021/10/31 10:47:09;;;;;;;2.12;0.85;;;21.50;73.70;;;;;;2318435;54;21025;-67
2021/10/31 10:49:39;;;;;;;2.08;1.00;;;21.60;75.30;;;;;;2500533;53;21048;-67
2021/10/31 10:52:11;;;;;;;4.53;2.33;;;21.70;74.80;;;;;;2305666;54;22067;-67
2021/10/31 10:54:44;;;;;;;4.78;2.47;;;21.70;74.80;;;;;;2283143;54;21030;-67
2021/10/31 10:57:14;;;;;;;3.33;1.40;;;21.80;75.00;;;;;;2294547;55;21077;-66
2021/10/31 10:59:41;;;;;;;3.20;1.20;;;21.80;75.10;;;;;;2522617;53;21077;-68
2021/10/31 11:02:16;;;;;;;2.78;1.20;;;21.90;75.40;;;;;;2290159;55;20934;-67
2021/10/31 11:05:08;;;;;;;2.30;0.90;;;22.00;74.50;;;;;;2518354;53;20983;-67
2021/10/31 11:07:50;;;;;;;1.55;0.70;;;22.10;73.90;;;;;;2293297;54;21033;-66
2021/10/31 11:10:24;;;;;;;1.50;0.62;;;22.20;74.20;;;;;;2272138;55;21260;-69
2021/10/31 11:12:52;;;;;;;1.73;0.65;;;22.30;74.80;;;;;;2337183;53;21018;-67
2021/10/31 11:15:25;;;;;;;1.30;0.50;;;22.40;74.30;;;;;;2475110;54;20967;-66
2021/10/31 11:17:53;;;;;;;1.10;0.50;;;22.40;73.80;;;;;;2295420;55;21575;-68
2021/10/31 11:20:23;;;;;;;1.02;0.50;;;22.50;73.60;;;;;;2302111;54;21032;-70
2021/10/31 11:22:53;;;;;;;1.92;0.85;;;22.50;72.80;;;;;;2302308;54;21041;-67
2021/10/31 11:25:21;;;;;;;2.65;0.70;;;22.50;72.30;;;;;;2293738;55;21571;-66
2021/10/31 11:27:51;;;;;;;2.12;0.80;;;22.60;72.80;;;;;;2314056;54;21045;-70
2021/10/31 11:30:19;;;;;;;1.75;0.62;;;22.60;72.40;;;;;;2532129;54;20898;-66
2021/10/31 11:32:45;;;;;;;2.05;0.73;;;22.60;72.90;;;;;;2302767;54;20936;-70
2021/10/31 11:35:14;;;;;;;1.60;0.65;;;22.70;72.90;;;;;;2544259;53;20989;-67
2021/10/31 11:37:45;;;;;;;2.47;0.85;;;22.70;72.60;;;;;;2300845;54;21726;-68
2021/10/31 11:40:11;;;;;;;1.52;0.57;;;22.70;72.40;;;;;;2512185;53;21039;-68
2021/10/31 11:42:49;;;;;;;1.23;0.55;;;22.70;72.50;;;;;;2316108;54;20961;-68
2021/10/31 11:46:40;;;;;;;1.33;0.60;;;22.80;71.30;;;;;;2332136;54;20993;-66
2021/10/31 11:49:08;;;;;;;1.42;0.52;;;22.80;72.30;;;;;;2321737;54;20953;-69
2021/10/31 11:52:24;;;;;;;2.92;0.60;;;22.90;72.50;;;;;;2309525;54;20970;-66
2021/10/31 11:58:42;;;;;;;1.25;0.52;;;22.90;70.40;;;;;;2303516;54;20943;-67
2021/10/31 12:01:14;;;;;;;0.68;0.35;;;23.00;70.40;;;;;;2298808;53;21720;-68
2021/10/31 12:04:01;;;;;;;;;;;23.10;72.20;;;;;;2517988;53;21175;-69
2021/10/31 12:06:38;;;;;;;2.15;0.40;;;23.20;71.40;;;;;;2296345;53;20122;-66
2021/10/31 12:09:06;;;;;;;1.90;0.50;;;23.20;71.60;;;;;;2483738;54;20943;-67
2021/10/31 12:12:21;;;;;;;1.83;0.70;;;23.30;72.50;;;;;;2473368;54;21600;-67
2021/10/31 12:14:52;;;;;;;2.28;0.68;;;23.30;70.70;;;;;;2303339;53;21345;-66
2021/10/31 12:17:22;;;;;;;1.00;0.40;;;23.40;72.20;;;;;;2479112;53;21552;-66
2021/10/31 12:19:50;;;;;;;1.33;0.47;;;23.40;72.50;;;;;;2369841;53;21553;-67
2021/10/31 12:22:40;;;;;;;1.62;0.57;;;23.50;72.40;;;;;;2456318;53;21016;-70
2021/10/31 12:25:09;;;;;;;0.98;0.47;;;23.50;71.80;;;;;;2423842;53;20984;-67
2021/10/31 12:28:11;;;;;;;0.98;0.45;;;23.60;71.80;;;;;;2313013;54;20989;-70
2021/10/31 12:30:40;;;;;;;1.55;0.60;;;23.70;69.80;;;;;;2322215;54;20945;-67
2021/10/31 12:33:11;;;;;;;1.42;0.50;;;23.80;71.70;;;;;;2358408;53;21547;-72
2021/10/31 12:35:43;;;;;;;1.83;0.50;;;23.80;71.20;;;;;;2369787;54;21008;-67
2021/10/31 12:40:13;;;;;;;1.35;0.68;;;23.80;71.60;;;;;;2456507;54;21002;-67
2021/10/31 12:42:54;;;;;;;1.25;0.60;;;24.00;70.40;;;;;;2351008;54;21091;-69
2021/10/31 12:45:34;;;;;;;1.50;0.68;;;24.10;69.80;;;;;;2351975;55;21516;-71
2021/10/31 12:48:08;;;;;;;2.12;0.80;;;24.10;70.80;;;;;;2288153;55;21292;-67
2021/10/31 12:50:34;;;;;;;1.73;0.70;;;24.10;70.00;;;;;;2304408;54;21781;-68
2021/10/31 12:53:11;;;;;;;2.60;1.00;;;24.20;71.00;;;;;;2297639;54;21011;-69
2021/10/31 12:55:38;;;;;;;3.33;1.15;;;24.20;70.10;;;;;;2362218;54;21072;-68
2021/10/31 12:59:11;;;;;;;3.17;1.10;;;24.20;70.50;;;;;;2307602;54;20985;-67
2021/10/31 13:01:37;;;;;;;2.17;0.88;;;24.30;68.90;;;;;;2331707;54;20985;-70
2021/10/31 13:04:06;;;;;;;1.98;0.70;;;24.40;70.70;;;;;;2263981;55;20978;-68
2021/10/31 13:06:55;;;;;;;1.95;1.00;;;24.40;70.30;;;;;;2307702;54;20997;-67
2021/10/31 13:09:21;;;;;;;2.72;0.82;;;24.40;68.00;;;;;;2314290;54;21618;-69
2021/10/31 13:11:48;;;;;;;2.70;1.00;;;24.40;69.60;;;;;;2534781;53;21541;-68
2021/10/31 13:14:34;;;;;;;1.85;0.77;;;24.40;69.10;;;;;;2317881;54;21375;-71
2021/10/31 13:17:08;;;;;;;2.70;0.90;;;24.40;67.20;;;;;;2375173;53;21641;-70
2021/10/31 13:19:39;;;;;;;2.15;0.80;;;24.40;68.00;;;;;;2320425;54;20990;-66
2021/10/31 13:22:27;;;;;;;2.45;0.73;;;24.30;68.30;;;;;;2293427;55;21014;-70
2021/10/31 13:24:54;;;;;;;2.42;1.00;;;24.30;68.10;;;;;;2288853;54;20982;-67
2021/10/31 13:27:23;;;;;;;2.17;0.70;;;24.20;68.00;;;;;;2314964;54;20974;-68
2021/10/31 13:29:52;;;;;;;1.10;0.60;;;24.20;67.80;;;;;;2281520;55;20994;-67
2021/10/31 13:32:23;;;;;;;1.75;0.65;;;24.20;68.00;;;;;;2293036;54;20961;-67